createdAt,value
2022-10-12T00:01:46.867Z,78.68
2022-10-12T00:04:13.501Z,78.82
2022-10-12T00:06:40.060Z,78.82
2022-10-12T00:09:06.778Z,79.16
2022-10-12T00:11:33.547Z,78.86
2022-10-12T00:14:00.337Z,79.15
2022-10-12T00:16:31.578Z,78.87
2022-10-12T00:18:59.188Z,79.20
2022-10-12T00:21:27.701Z,79.20
2022-10-12T00:23:58.397Z,79.50
2022-10-12T00:26:26.088Z,79.07
2022-10-12T00:29:01.199Z,78.84
2022-10-12T00:31:29.057Z,79.16
2022-10-12T00:33:56.292Z,79.17
2022-10-12T00:36:26.182Z,79.64
2022-10-12T00:38:55.252Z,79.76
2022-10-12T00:41:24.947Z,79.80
2022-10-12T00:43:57.957Z,79.49
2022-10-12T00:46:35.138Z,79.76
2022-10-12T00:49:25.824Z,80.00
2022-10-12T00:51:58.611Z,80.58
2022-10-12T00:54:31.119Z,80.05
2022-10-12T00:57:00.401Z,79.61
2022-10-12T00:59:33.955Z,79.85
2022-10-12T01:02:02.387Z,79.88
2022-10-12T01:04:31.857Z,80.08
2022-10-12T01:06:59.982Z,79.87
2022-10-12T01:09:28.181Z,79.97
2022-10-12T01:11:56.803Z,80.23
2022-10-12T01:14:23.489Z,79.87
2022-10-12T01:16:58.583Z,79.98
2022-10-12T01:19:46.191Z,79.93
2022-10-12T01:22:17.935Z,80.05
2022-10-12T01:25:25.956Z,80.43
2022-10-12T01:27:57.754Z,80.04
2022-10-12T01:30:26.835Z,80.67
2022-10-12T01:33:12.042Z,81.00
2022-10-12T01:36:16.193Z,81.14
2022-10-12T01:38:57.977Z,80.76
2022-10-12T01:41:34.696Z,80.73
2022-10-12T01:44:01.414Z,80.59
2022-10-12T01:46:28.375Z,80.56
2022-10-12T01:48:58.514Z,80.83
2022-10-12T01:51:36.441Z,80.46
2022-10-12T01:54:13.164Z,80.67
2022-10-12T01:56:49.459Z,80.26
2022-10-12T02:00:02.082Z,80.47
2022-10-12T02:02:41.813Z,80.56
2022-10-12T02:05:34.348Z,80.09
2022-10-12T02:08:23.051Z,80.44
2022-10-12T02:11:01.888Z,80.15
2022-10-12T02:13:33.479Z,80.17
2022-10-12T02:16:03.591Z,80.39
2022-10-12T02:18:31.219Z,80.31
2022-10-12T02:21:00.783Z,80.29
2022-10-12T02:23:28.366Z,80.70
2022-10-12T02:25:58.720Z,80.67
2022-10-12T02:28:27.730Z,81.12
2022-10-12T02:31:02.975Z,80.97
2022-10-12T02:33:43.716Z,80.60
2022-10-12T02:36:21.617Z,80.19
2022-10-12T02:39:07.609Z,81.04
2022-10-12T02:41:40.224Z,81.16
2022-10-12T02:44:12.220Z,81.15
2022-10-12T02:46:40.801Z,81.14
2022-10-12T02:49:08.292Z,80.93
2022-10-12T02:51:36.166Z,81.87
2022-10-12T02:54:03.676Z,81.48
2022-10-12T02:56:30.342Z,81.69
2022-10-12T02:58:57.034Z,81.50
2022-10-12T03:01:23.875Z,82.17
2022-10-12T03:03:50.577Z,82.07
2022-10-12T03:06:17.403Z,82.27
2022-10-12T03:08:43.990Z,82.67
2022-10-12T03:11:12.897Z,82.18
2022-10-12T03:13:39.533Z,82.46
2022-10-12T03:16:09.297Z,82.26
2022-10-12T03:18:36.887Z,82.29
2022-10-12T03:21:04.020Z,82.11
2022-10-12T03:23:30.711Z,82.78
2022-10-12T03:25:57.354Z,82.63
2022-10-12T03:28:24.291Z,82.59
2022-10-12T03:30:51.006Z,82.25
2022-10-12T03:33:17.644Z,82.37
2022-10-12T03:35:45.588Z,82.63
2022-10-12T03:38:13.557Z,82.52
2022-10-12T03:40:40.761Z,82.67
2022-10-12T03:43:08.166Z,83.01
2022-10-12T03:45:35.166Z,83.03
2022-10-12T03:48:05.162Z,83.28
2022-10-12T03:50:35.065Z,83.13
2022-10-12T03:53:03.169Z,83.15
2022-10-12T03:55:29.913Z,83.31
2022-10-12T03:57:56.666Z,83.61
2022-10-12T04:00:24.577Z,83.33
2022-10-12T04:02:51.261Z,83.47
2022-10-12T04:05:19.191Z,83.90
2022-10-12T04:07:45.983Z,84.10
2022-10-12T04:10:12.756Z,83.57
2022-10-12T04:12:39.409Z,83.88
2022-10-12T04:15:06.621Z,83.97
2022-10-12T04:17:33.259Z,84.27
2022-10-12T04:19:59.944Z,84.57
2022-10-12T04:22:26.597Z,85.07
2022-10-12T04:24:53.244Z,84.88
2022-10-12T04:27:20.352Z,84.73
2022-10-12T04:29:47.021Z,84.65
2022-10-12T04:32:13.669Z,84.50
2022-10-12T04:34:40.427Z,84.86
2022-10-12T04:37:07.336Z,84.94
2022-10-12T04:39:34.067Z,85.54
2022-10-12T04:42:00.796Z,85.79
2022-10-12T04:44:31.993Z,86.07
2022-10-12T04:46:59.822Z,86.51
2022-10-12T04:49:26.577Z,86.01
2022-10-12T04:51:53.169Z,86.06
2022-10-12T04:54:19.871Z,85.11
2022-10-12T04:56:48.130Z,85.30
2022-10-12T04:59:15.193Z,85.30
2022-10-12T05:01:42.273Z,85.02
2022-10-12T05:04:09.131Z,85.05
2022-10-12T05:06:35.836Z,85.13
2022-10-12T05:09:02.975Z,85.07
2022-10-12T05:11:29.664Z,84.60
2022-10-12T05:13:56.307Z,84.85
2022-10-12T05:16:23.286Z,84.72
2022-10-12T05:18:49.956Z,84.10
2022-10-12T05:21:16.671Z,84.68
2022-10-12T05:23:43.294Z,84.57
2022-10-12T05:26:09.884Z,83.66
2022-10-12T05:28:40.869Z,83.73
2022-10-12T05:31:08.602Z,83.69
2022-10-12T05:33:35.586Z,83.30
2022-10-12T05:36:02.294Z,82.57
2022-10-12T05:38:28.991Z,82.10
2022-10-12T05:41:00.381Z,81.46
2022-10-12T05:43:27.909Z,81.27
2022-10-12T05:45:54.586Z,80.90
2022-10-12T05:48:21.180Z,81.41
2022-10-12T05:50:47.823Z,81.60
2022-10-12T05:53:14.531Z,81.12
2022-10-12T05:55:41.192Z,81.49
2022-10-12T05:58:07.911Z,80.33
2022-10-12T06:00:34.504Z,80.76
2022-10-12T06:03:01.133Z,80.39
2022-10-12T06:05:27.778Z,79.89
2022-10-12T06:07:54.449Z,79.49
2022-10-12T06:10:21.130Z,79.38
2022-10-12T06:12:47.761Z,79.31
2022-10-12T06:15:14.569Z,79.51
2022-10-12T06:17:41.336Z,78.55
2022-10-12T06:20:08.400Z,77.64
2022-10-12T06:22:35.396Z,77.80
2022-10-12T06:25:02.296Z,77.91
2022-10-12T06:27:28.986Z,77.47
2022-10-12T06:29:55.808Z,76.45
2022-10-12T06:32:22.453Z,77.41
2022-10-12T06:34:49.210Z,76.18
2022-10-12T06:37:44.571Z,77.52
2022-10-12T06:40:02.637Z,76.27
2022-10-12T06:42:29.236Z,74.92
2022-10-12T06:44:55.805Z,74.32
2022-10-12T06:47:22.499Z,73.52
2022-10-12T06:49:49.112Z,74.51
2022-10-12T06:52:15.905Z,74.21
2022-10-12T06:54:42.640Z,73.31
2022-10-12T06:57:09.359Z,71.28
2022-10-12T06:59:36.103Z,70.19
2022-10-12T07:02:02.842Z,71.37
2022-10-12T07:04:29.533Z,70.96
2022-10-12T07:06:56.179Z,70.40
2022-10-12T07:09:22.740Z,69.88
2022-10-12T07:11:49.409Z,69.48
2022-10-12T07:14:16.180Z,69.04
2022-10-12T07:16:42.872Z,67.09
2022-10-12T07:19:09.648Z,69.21
2022-10-12T07:21:36.342Z,69.91
2022-10-12T07:24:02.979Z,69.73
2022-10-12T07:26:29.685Z,69.24
2022-10-12T07:28:56.352Z,68.80
2022-10-12T07:31:23.047Z,68.72
2022-10-12T07:33:49.900Z,69.08
2022-10-12T07:36:21.225Z,68.38
2022-10-12T07:38:49.234Z,66.21
2022-10-12T07:41:16.177Z,63.28
2022-10-12T07:43:43.394Z,63.74
2022-10-12T07:46:10.334Z,62.93
2022-10-12T07:48:38.011Z,63.31
2022-10-12T07:51:10.205Z,61.49
2022-10-12T07:53:38.097Z,61.91
2022-10-12T07:56:08.008Z,62.36
2022-10-12T07:58:34.925Z,62.61
2022-10-12T08:01:06.924Z,61.25
2022-10-12T08:03:33.714Z,62.66
2022-10-12T08:06:00.729Z,63.01
2022-10-12T08:08:27.316Z,65.31
2022-10-12T08:10:54.106Z,64.77
2022-10-12T08:13:20.676Z,64.03
2022-10-12T08:15:51.008Z,63.27
2022-10-12T08:18:17.872Z,62.56
2022-10-12T08:20:44.543Z,63.11
2022-10-12T08:23:11.352Z,61.76
2022-10-12T08:25:38.249Z,62.22
2022-10-12T08:28:06.012Z,61.69
2022-10-12T08:30:35.885Z,60.05
2022-10-12T08:33:04.798Z,59.60
2022-10-12T08:35:33.530Z,59.73
2022-10-12T08:38:00.162Z,58.80
2022-10-12T08:40:33.460Z,59.28
2022-10-12T08:43:15.706Z,59.75
2022-10-12T08:45:54.716Z,60.28
2022-10-12T08:48:28.968Z,60.82
2022-10-12T08:51:11.170Z,59.70
2022-10-12T08:53:50.877Z,58.83
2022-10-12T08:56:21.435Z,59.38
2022-10-12T08:58:50.089Z,58.79
2022-10-12T09:01:29.185Z,59.66
2022-10-12T09:04:12.334Z,60.70
2022-10-12T09:06:53.957Z,57.62
2022-10-12T09:09:58.226Z,56.37
2022-10-12T09:12:36.095Z,56.94
2022-10-12T09:15:11.154Z,57.22
2022-10-12T09:17:46.594Z,56.83
2022-10-12T09:20:21.438Z,55.29
2022-10-12T09:22:58.720Z,56.42
2022-10-12T09:25:27.937Z,55.20
2022-10-12T09:28:06.907Z,57.52
2022-10-12T09:30:41.735Z,57.72
2022-10-12T09:33:23.750Z,55.81
2022-10-12T09:35:51.363Z,53.33
2022-10-12T09:38:18.214Z,53.98
2022-10-12T09:40:45.777Z,51.48
2022-10-12T09:43:14.624Z,52.49
2022-10-12T09:45:42.530Z,53.52
2022-10-12T09:48:11.316Z,56.26
2022-10-12T09:51:05.037Z,54.42
2022-10-12T09:53:43.467Z,54.76
2022-10-12T09:56:22.982Z,54.34
2022-10-12T09:58:53.522Z,55.25
2022-10-12T10:01:26.749Z,55.47
2022-10-12T10:04:14.175Z,53.67
2022-10-12T10:06:44.175Z,51.60
2022-10-12T10:09:31.077Z,50.74
2022-10-12T10:12:11.440Z,50.92
2022-10-12T10:14:38.478Z,49.55
2022-10-12T10:17:05.270Z,48.90
2022-10-12T10:19:31.955Z,48.51
2022-10-12T10:22:05.775Z,47.44
2022-10-12T10:24:34.121Z,46.96
2022-10-12T10:27:29.036Z,47.42
2022-10-12T10:30:32.055Z,48.43
2022-10-12T10:33:17.722Z,48.10
2022-10-12T10:36:07.085Z,48.30
2022-10-12T10:38:53.395Z,49.54
2022-10-12T10:41:25.247Z,48.75
2022-10-12T10:43:51.938Z,49.01
2022-10-12T10:46:25.371Z,48.30
2022-10-12T10:49:06.929Z,48.80
2022-10-12T10:51:53.915Z,49.97
2022-10-12T10:54:23.727Z,50.09
2022-10-12T10:56:53.361Z,49.24
2022-10-12T10:59:45.705Z,49.63
2022-10-12T11:02:22.332Z,51.45
2022-10-12T11:04:54.059Z,48.80
2022-10-12T11:07:35.504Z,48.81
2022-10-12T11:10:09.382Z,49.26
2022-10-12T11:12:41.420Z,49.78
2022-10-12T11:15:18.693Z,49.01
2022-10-12T11:17:49.973Z,48.31
2022-10-12T11:20:30.535Z,48.32
2022-10-12T11:23:14.178Z,49.84
2022-10-12T11:25:49.293Z,48.80
2022-10-12T11:28:16.824Z,46.60
2022-10-12T11:30:51.716Z,45.86
2022-10-12T11:33:24.811Z,45.85
2022-10-12T11:35:54.726Z,45.87
2022-10-12T11:38:32.925Z,45.99
2022-10-12T11:41:31.082Z,44.70
2022-10-12T11:44:00.987Z,43.76
2022-10-12T11:46:37.468Z,44.05
2022-10-12T11:49:35.502Z,40.41
2022-10-12T11:52:08.662Z,40.59
2022-10-12T11:55:13.658Z,40.87
2022-10-12T11:57:40.627Z,39.80
2022-10-12T12:00:22.853Z,41.62
2022-10-12T12:03:10.654Z,42.10
2022-10-12T12:05:37.573Z,37.71
2022-10-12T12:08:04.382Z,39.37
2022-10-12T12:10:34.967Z,40.28
2022-10-12T12:13:13.116Z,38.77
2022-10-12T12:15:41.998Z,39.54
2022-10-12T12:18:13.909Z,38.50
2022-10-12T12:20:43.582Z,38.96
2022-10-12T12:23:25.990Z,38.19
2022-10-12T12:26:17.655Z,38.54
2022-10-12T12:28:44.364Z,38.09
2022-10-12T12:31:37.611Z,39.50
2022-10-12T12:34:07.373Z,37.47
2022-10-12T12:36:46.531Z,38.85
2022-10-12T12:39:35.025Z,40.41
2022-10-12T12:42:03.623Z,39.67
2022-10-12T12:44:42.947Z,39.60
2022-10-12T12:50:00.832Z,40.41
2022-10-12T12:52:31.855Z,41.29
2022-10-12T12:55:10.581Z,40.60
2022-10-12T12:58:01.564Z,37.39
2022-10-12T13:01:00.643Z,36.59
2022-10-12T13:03:55.208Z,36.65
2022-10-12T13:06:59.553Z,36.75
2022-10-12T13:09:26.148Z,39.81
2022-10-12T13:11:55.693Z,38.58
2022-10-12T13:14:55.776Z,35.20
2022-10-12T13:17:34.475Z,35.87
2022-10-12T13:20:17.361Z,35.52
2022-10-12T13:22:47.274Z,35.84
2022-10-12T13:25:39.272Z,33.31
2022-10-12T13:28:12.474Z,33.80
2022-10-12T13:30:46.248Z,34.08
2022-10-12T13:33:21.597Z,35.76
2022-10-12T13:36:26.524Z,34.13
2022-10-12T13:38:58.314Z,34.47
2022-10-12T13:41:30.288Z,33.31
2022-10-12T13:44:07.617Z,33.96
2022-10-12T13:46:48.616Z,33.74
2022-10-12T13:49:25.857Z,35.24
2022-10-12T13:52:12.193Z,35.24
2022-10-12T13:54:41.300Z,35.29
2022-10-12T13:57:21.364Z,35.51
2022-10-12T13:59:53.978Z,35.76
2022-10-12T14:02:27.536Z,36.18
2022-10-12T14:04:56.578Z,36.19
2022-10-12T14:07:35.762Z,36.53
2022-10-12T14:10:19.288Z,35.69
2022-10-12T14:12:48.598Z,37.42
2022-10-12T14:15:16.049Z,37.08
2022-10-12T14:17:47.199Z,37.87
2022-10-12T14:20:27.158Z,38.21
2022-10-12T14:22:54.855Z,40.38
2022-10-12T14:25:28.319Z,39.09
2022-10-12T14:28:00.770Z,40.25
2022-10-12T14:30:51.498Z,37.77
2022-10-12T14:33:18.075Z,38.93
2022-10-12T14:35:49.707Z,41.40
2022-10-12T14:38:45.803Z,39.35
2022-10-12T14:41:49.049Z,39.25
2022-10-12T14:44:18.730Z,40.52
2022-10-12T14:46:54.415Z,41.98
2022-10-12T14:49:26.865Z,41.09
2022-10-12T14:51:55.446Z,39.32
2022-10-12T14:54:22.506Z,40.89
2022-10-12T14:56:49.207Z,40.91
2022-10-12T14:59:16.012Z,40.16
2022-10-12T15:01:44.277Z,42.00
2022-10-12T15:04:14.887Z,43.67
2022-10-12T15:06:41.638Z,45.48
2022-10-12T15:09:08.287Z,44.73
2022-10-12T15:11:34.907Z,45.01
2022-10-12T15:14:01.517Z,45.23
2022-10-12T15:16:29.127Z,44.55
2022-10-12T15:18:55.905Z,45.50
2022-10-12T15:21:22.687Z,46.96
2022-10-12T15:23:50.355Z,46.76
2022-10-12T15:26:18.647Z,47.75
2022-10-12T15:28:45.597Z,46.49
2022-10-12T15:31:17.955Z,47.65
2022-10-12T15:33:45.196Z,48.00
2022-10-12T15:36:12.094Z,48.35
2022-10-12T15:38:38.838Z,48.41
2022-10-12T15:41:05.966Z,48.86
2022-10-12T15:43:34.610Z,48.48
2022-10-12T15:46:03.626Z,48.22
2022-10-12T15:48:30.259Z,48.23
2022-10-12T15:50:57.054Z,48.31
2022-10-12T15:53:25.488Z,48.09
2022-10-12T15:55:54.241Z,47.93
2022-10-12T15:58:21.715Z,47.43
2022-10-12T16:00:48.800Z,47.24
2022-10-12T16:03:22.920Z,47.13
2022-10-12T16:05:52.577Z,47.95
2022-10-12T16:08:19.171Z,48.37
2022-10-12T16:10:46.239Z,48.29
2022-10-12T16:13:14.071Z,48.39
2022-10-12T16:15:41.989Z,48.01
2022-10-12T16:20:53.818Z,49.18
2022-10-12T16:23:25.484Z,48.55
2022-10-12T16:25:52.225Z,48.16
2022-10-12T16:28:19.610Z,48.83
2022-10-12T16:30:46.500Z,49.28
2022-10-12T16:33:13.120Z,49.17
2022-10-12T16:35:40.743Z,48.86
2022-10-12T16:38:09.043Z,49.13
2022-10-12T16:40:38.109Z,49.22
2022-10-12T16:43:04.750Z,49.95
2022-10-12T16:45:31.417Z,50.32
2022-10-12T16:47:58.023Z,50.76
2022-10-12T16:50:25.206Z,51.23
2022-10-12T16:52:52.760Z,51.37
2022-10-12T16:55:20.372Z,50.47
2022-10-12T16:57:47.426Z,51.54
2022-10-12T17:00:19.528Z,51.02
2022-10-12T17:02:47.344Z,50.92
2022-10-12T17:05:14.149Z,51.42
2022-10-12T17:07:40.781Z,50.76
2022-10-12T17:10:07.918Z,50.47
2022-10-12T17:12:35.642Z,50.71
2022-10-12T17:15:02.330Z,50.00
2022-10-12T17:17:28.963Z,48.98
2022-10-12T17:19:55.662Z,49.51
2022-10-12T17:22:22.404Z,49.25
2022-10-12T17:24:49.079Z,50.32
2022-10-12T17:27:16.906Z,50.71
2022-10-12T17:29:44.040Z,50.82
2022-10-12T17:32:12.173Z,50.79
2022-10-12T17:34:42.509Z,51.87
2022-10-12T17:37:13.712Z,51.88
2022-10-12T17:39:46.172Z,52.46
2022-10-12T17:42:13.612Z,53.02
2022-10-12T17:44:40.508Z,53.62
2022-10-12T17:47:07.675Z,53.98
2022-10-12T17:49:34.290Z,54.32
2022-10-12T17:52:00.898Z,55.38
2022-10-12T17:54:27.673Z,55.16
2022-10-12T17:56:55.888Z,55.85
2022-10-12T17:59:23.018Z,55.84
2022-10-12T18:01:50.502Z,56.24
2022-10-12T18:04:17.624Z,56.86
2022-10-12T18:06:45.845Z,57.04
2022-10-12T18:09:13.111Z,57.43
2022-10-12T18:11:40.195Z,58.09
2022-10-12T18:14:09.594Z,58.15
2022-10-12T18:16:36.942Z,58.31
2022-10-12T18:19:07.316Z,58.90
2022-10-12T18:21:34.278Z,58.67
2022-10-12T18:24:07.014Z,59.54
2022-10-12T18:26:33.872Z,58.98
2022-10-12T18:29:02.064Z,59.26
2022-10-12T18:31:30.229Z,59.47
2022-10-12T18:33:57.875Z,59.19
2022-10-12T18:36:25.201Z,59.51
2022-10-12T18:38:52.148Z,59.72
2022-10-12T18:41:25.797Z,60.00
2022-10-12T18:44:00.904Z,60.22
2022-10-12T18:46:29.454Z,60.36
2022-10-12T18:48:56.608Z,61.28
2022-10-12T18:51:27.704Z,60.93
2022-10-12T18:53:55.345Z,61.21
2022-10-12T18:56:22.574Z,61.29
2022-10-12T18:58:49.570Z,61.03
2022-10-12T19:01:22.245Z,61.70
2022-10-12T19:03:49.194Z,61.15
2022-10-12T19:06:19.470Z,61.16
2022-10-12T19:08:48.140Z,61.58
2022-10-12T19:11:17.666Z,61.90
2022-10-12T19:13:50.850Z,61.69
2022-10-12T19:16:18.074Z,62.01
2022-10-12T19:18:44.828Z,62.41
2022-10-12T19:21:20.578Z,62.48
2022-10-12T19:23:47.163Z,62.82
2022-10-12T19:26:16.952Z,62.85
2022-10-12T19:28:44.000Z,63.90
2022-10-12T19:31:16.991Z,64.28
2022-10-12T19:33:44.289Z,64.53
2022-10-12T19:36:13.119Z,64.40
2022-10-12T19:38:40.153Z,64.35
2022-10-12T19:41:07.482Z,64.78
2022-10-12T19:43:37.497Z,65.49
2022-10-12T19:46:05.875Z,65.36
2022-10-12T19:48:32.886Z,65.70
2022-10-12T19:51:05.078Z,66.00
2022-10-12T19:53:32.271Z,66.35
2022-10-12T19:56:14.019Z,66.61
2022-10-12T19:58:45.425Z,67.21
2022-10-12T20:01:15.250Z,67.35
2022-10-12T20:03:47.464Z,68.22
2022-10-12T20:06:14.510Z,68.01
2022-10-12T20:08:43.098Z,68.57
2022-10-12T20:11:15.603Z,68.33
2022-10-12T20:13:45.744Z,68.70
2022-10-12T20:16:13.500Z,68.91
2022-10-12T20:18:40.280Z,69.11
2022-10-12T20:21:09.950Z,69.41
2022-10-12T20:23:38.965Z,69.57
2022-10-12T20:26:08.669Z,69.99
2022-10-12T20:28:36.640Z,69.96
2022-10-12T20:31:05.522Z,70.48
2022-10-12T20:33:33.676Z,70.38
2022-10-12T20:36:00.621Z,70.43
2022-10-12T20:38:27.691Z,71.35
2022-10-12T20:41:08.037Z,71.46
2022-10-12T20:43:36.639Z,71.57
2022-10-12T20:46:04.681Z,71.53
2022-10-12T20:48:32.333Z,72.03
2022-10-12T20:50:59.443Z,72.57
2022-10-12T20:53:26.403Z,72.79
2022-10-12T20:55:53.717Z,72.76
2022-10-12T20:58:24.322Z,72.91
2022-10-12T21:01:07.845Z,73.17
2022-10-12T21:03:34.748Z,73.34
2022-10-12T21:06:10.852Z,73.65
2022-10-12T21:08:37.803Z,73.41
2022-10-12T21:11:06.040Z,73.90
2022-10-12T21:13:34.600Z,73.45
2022-10-12T21:16:01.668Z,73.99
2022-10-12T21:18:32.721Z,74.10
2022-10-12T21:21:11.782Z,74.51
2022-10-12T21:23:39.901Z,74.18
2022-10-12T21:26:18.585Z,74.37
2022-10-12T21:28:46.321Z,74.52
2022-10-12T21:31:13.919Z,74.75
2022-10-12T21:33:40.798Z,75.40
2022-10-12T21:36:11.752Z,75.29
2022-10-12T21:38:39.250Z,75.19
2022-10-12T21:41:08.028Z,75.78
2022-10-12T21:43:36.151Z,75.82
2022-10-12T21:46:08.514Z,76.03
2022-10-12T21:48:35.679Z,76.42
2022-10-12T21:51:03.843Z,76.21
2022-10-12T21:53:30.909Z,76.65
2022-10-12T21:55:57.730Z,76.44
2022-10-12T21:58:24.437Z,76.59
2022-10-12T22:00:51.138Z,77.33
2022-10-12T22:03:17.825Z,77.21
2022-10-12T22:05:44.992Z,77.33
2022-10-12T22:08:11.764Z,76.94
2022-10-12T22:10:39.601Z,76.79
2022-10-12T22:13:07.423Z,76.95
2022-10-12T22:15:35.498Z,76.70
2022-10-12T22:18:02.182Z,76.91
2022-10-12T22:20:28.817Z,76.72
2022-10-12T22:22:55.416Z,77.01
2022-10-12T22:25:22.059Z,77.11
2022-10-12T22:27:48.825Z,77.24
2022-10-12T22:30:15.581Z,76.95
2022-10-12T22:32:42.429Z,77.36
2022-10-12T22:35:09.413Z,76.96
2022-10-12T22:37:36.107Z,77.39
2022-10-12T22:40:04.087Z,77.08
2022-10-12T22:42:30.828Z,77.73
2022-10-12T22:44:57.581Z,77.98
2022-10-12T22:47:25.738Z,78.23
2022-10-12T22:49:52.377Z,77.65
2022-10-12T22:52:19.181Z,77.95
2022-10-12T22:54:46.343Z,77.94
2022-10-12T22:57:12.945Z,78.07
2022-10-12T22:59:41.085Z,78.28
2022-10-12T23:02:07.766Z,78.84
2022-10-12T23:04:34.642Z,78.73
2022-10-12T23:07:01.190Z,78.78
2022-10-12T23:09:27.756Z,78.82
2022-10-12T23:11:54.384Z,78.92
2022-10-12T23:14:21.122Z,78.49
2022-10-12T23:16:47.738Z,78.82
2022-10-12T23:19:14.401Z,78.45
2022-10-12T23:21:41.059Z,78.59
2022-10-12T23:24:08.240Z,78.30
2022-10-12T23:26:35.005Z,78.41
2022-10-12T23:29:01.893Z,79.08
2022-10-12T23:31:30.765Z,78.68
2022-10-12T23:34:02.766Z,78.50
2022-10-12T23:36:30.323Z,78.67
2022-10-12T23:39:00.354Z,79.07
2022-10-12T23:41:27.053Z,78.89
2022-10-12T23:43:53.623Z,79.18
2022-10-12T23:46:20.330Z,78.80
2022-10-12T23:48:46.995Z,79.36
2022-10-12T23:51:13.634Z,79.02
2022-10-12T23:53:43.621Z,79.22
2022-10-12T23:56:10.776Z,80.00
2022-10-12T23:58:37.523Z,79.77
